sensor_id;sensor_type;location;lat;lon;timestamp;pressure;altitude;pressure_sealevel;temperature;humidity
55149;BME280;49539;48.160;11.530;2022-10-16T00:00:10;95874.09;;;12.80;100.00
55149;BME280;49539;48.160;11.530;2022-10-16T00:02:46;95878.00;;;12.79;100.00
55149;BME280;49539;48.160;11.530;2022-10-16T00:05:18;95876.91;;;12.77;100.00
55149;BME280;49539;48.160;11.530;2022-10-16T00:07:57;95880.06;;;12.75;100.00
55149;BME280;49539;48.160;11.530;2022-10-16T00:10:27;95879.84;;;12.70;100.00
55149;BME280;49539;48.160;11.530;2022-10-16T00:12:56;95882.50;;;12.73;100.00
55149;BME280;49539;48.160;11.530;2022-10-16T00:15:22;95881.28;;;12.74;100.00
55149;BME280;49539;48.160;11.530;2022-10-16T00:17:56;95884.78;;;12.75;100.00
55149;BME280;49539;48.160;11.530;2022-10-16T00:20:28;95871.47;;;12.77;100.00
55149;BME280;49539;48.160;11.530;2022-10-16T00:23:23;95869.25;;;12.72;100.00
55149;BME280;49539;48.160;11.530;2022-10-16T00:25:57;95872.88;;;12.69;100.00
55149;BME280;49539;48.160;11.530;2022-10-16T00:28:30;95872.50;;;12.66;100.00
55149;BME280;49539;48.160;11.530;2022-10-16T00:30:58;95884.56;;;12.69;100.00
55149;BME280;49539;48.160;11.530;2022-10-16T00:33:24;95880.50;;;12.61;100.00
55149;BME280;49539;48.160;11.530;2022-10-16T00:36:00;95875.34;;;12.63;100.00
55149;BME280;49539;48.160;11.530;2022-10-16T00:38:45;95865.97;;;12.64;100.00
55149;BME280;49539;48.160;11.530;2022-10-16T00:41:16;95869.47;;;12.64;100.00
55149;BME280;49539;48.160;11.530;2022-10-16T00:43:46;95876.25;;;12.60;100.00
55149;BME280;49539;48.160;11.530;2022-10-16T00:48:42;95889.91;;;12.60;100.00
55149;BME280;49539;48.160;11.530;2022-10-16T00:51:14;95882.88;;;12.59;100.00
55149;BME280;49539;48.160;11.530;2022-10-16T00:53:47;95884.56;;;12.69;100.00
55149;BME280;49539;48.160;11.530;2022-10-16T00:56:18;95881.38;;;12.71;100.00
55149;BME280;49539;48.160;11.530;2022-10-16T00:58:44;95885.22;;;12.73;100.00
55149;BME280;49539;48.160;11.530;2022-10-16T01:01:10;95874.38;;;12.70;100.00
55149;BME280;49539;48.160;11.530;2022-10-16T01:03:35;95887.50;;;12.75;100.00
55149;BME280;49539;48.160;11.530;2022-10-16T01:06:16;95898.22;;;12.69;100.00
55149;BME280;49539;48.160;11.530;2022-10-16T01:11:22;95898.22;;;12.69;100.00
55149;BME280;49539;48.160;11.530;2022-10-16T01:13:54;95893.88;;;12.72;100.00
55149;BME280;49539;48.160;11.530;2022-10-16T01:18:54;95899.19;;;12.75;100.00
55149;BME280;49539;48.160;11.530;2022-10-16T01:21:28;95914.06;;;12.74;100.00
55149;BME280;49539;48.160;11.530;2022-10-16T01:29:29;95902.91;;;12.69;100.00
55149;BME280;49539;48.160;11.530;2022-10-16T01:31:59;95903.88;;;12.62;100.00
55149;BME280;49539;48.160;11.530;2022-10-16T01:34:28;95908.59;;;12.61;100.00
55149;BME280;49539;48.160;11.530;2022-10-16T01:36:58;95903.22;;;12.58;100.00
55149;BME280;49539;48.160;11.530;2022-10-16T01:39:28;95901.06;;;12.65;100.00
55149;BME280;49539;48.160;11.530;2022-10-16T01:41:55;95904.00;;;12.71;100.00
55149;BME280;49539;48.160;11.530;2022-10-16T01:44:24;95887.28;;;12.69;100.00
55149;BME280;49539;48.160;11.530;2022-10-16T01:46:50;95885.22;;;12.73;100.00
55149;BME280;49539;48.160;11.530;2022-10-16T01:49:17;95882.50;;;12.73;100.00
55149;BME280;49539;48.160;11.530;2022-10-16T01:51:44;95885.31;;;12.70;100.00
55149;BME280;49539;48.160;11.530;2022-10-16T01:54:11;95886.19;;;12.79;100.00
55149;BME280;49539;48.160;11.530;2022-10-16T01:56:38;95883.59;;;12.76;100.00
55149;BME280;49539;48.160;11.530;2022-10-16T01:59:09;95885.53;;;12.75;100.00
55149;BME280;49539;48.160;11.530;2022-10-16T02:01:36;95877.88;;;12.70;100.00
55149;BME280;49539;48.160;11.530;2022-10-16T02:04:10;95872.00;;;12.72;100.00
55149;BME280;49539;48.160;11.530;2022-10-16T02:06:37;95879.41;;;12.71;100.00
55149;BME280;49539;48.160;11.530;2022-10-16T02:09:02;95877.66;;;12.64;100.00
55149;BME280;49539;48.160;11.530;2022-10-16T02:11:28;95873.63;;;12.69;100.00
55149;BME280;49539;48.160;11.530;2022-10-16T02:13:54;95879.53;;;12.68;100.00
55149;BME280;49539;48.160;11.530;2022-10-16T02:16:20;95883.34;;;12.70;100.00
55149;BME280;49539;48.160;11.530;2022-10-16T02:18:45;95880.63;;;12.70;100.00
55149;BME280;49539;48.160;11.530;2022-10-16T02:21:16;95879.75;;;12.73;100.00
55149;BME280;49539;48.160;11.530;2022-10-16T02:23:55;95878.53;;;12.74;100.00
55149;BME280;49539;48.160;11.530;2022-10-16T02:26:30;95882.13;;;12.71;100.00
55149;BME280;49539;48.160;11.530;2022-10-16T02:29:00;95878.53;;;12.74;100.00
55149;BME280;49539;48.160;11.530;2022-10-16T02:31:30;95873.94;;;12.71;100.00
55149;BME280;49539;48.160;11.530;2022-10-16T02:33:59;95883.25;;;12.74;100.00
55149;BME280;49539;48.160;11.530;2022-10-16T02:36:25;95894.19;;;12.74;100.00
55149;BME280;49539;48.160;11.530;2022-10-16T02:38:51;95890.56;;;12.64;100.00
55149;BME280;49539;48.160;11.530;2022-10-16T02:41:17;95896.22;;;12.57;100.00
55149;BME280;49539;48.160;11.530;2022-10-16T02:43:43;95900.16;;;12.56;100.00
55149;BME280;49539;48.160;11.530;2022-10-16T02:46:08;95894.59;;;12.59;100.00
55149;BME280;49539;48.160;11.530;2022-10-16T02:48:34;95897.22;;;12.63;100.00
55149;BME280;49539;48.160;11.530;2022-10-16T02:51:00;95893.81;;;12.59;100.00
55149;BME280;49539;48.160;11.530;2022-10-16T02:53:25;95903.75;;;12.53;100.00
55149;BME280;49539;48.160;11.530;2022-10-16T02:55:51;95908.38;;;12.56;100.00
55149;BME280;49539;48.160;11.530;2022-10-16T02:58:16;95909.31;;;12.49;100.00
55149;BME280;49539;48.160;11.530;2022-10-16T03:00:41;95910.44;;;12.52;100.00
55149;BME280;49539;48.160;11.530;2022-10-16T03:03:07;95903.41;;;12.51;100.00
55149;BME280;49539;48.160;11.530;2022-10-16T03:05:32;95896.84;;;12.48;100.00
55149;BME280;49539;48.160;11.530;2022-10-16T03:07:58;95901.13;;;12.49;100.00
55149;BME280;49539;48.160;11.530;2022-10-16T03:10:25;95894.22;;;12.45;100.00
55149;BME280;49539;48.160;11.530;2022-10-16T03:12:51;95895.97;;;12.38;100.00
55149;BME280;49539;48.160;11.530;2022-10-16T03:15:16;95892.56;;;12.34;100.00
55149;BME280;49539;48.160;11.530;2022-10-16T03:17:41;95893.31;;;12.35;100.00
55149;BME280;49539;48.160;11.530;2022-10-16T03:20:07;95894.94;;;12.32;100.00
55149;BME280;49539;48.160;11.530;2022-10-16T03:22:32;95891.59;;;12.41;100.00
55149;BME280;49539;48.160;11.530;2022-10-16T03:24:57;95901.22;;;12.46;100.00
55149;BME280;49539;48.160;11.530;2022-10-16T03:27:22;95898.06;;;12.47;100.00
55149;BME280;49539;48.160;11.530;2022-10-16T03:29:48;95901.78;;;12.53;100.00
55149;BME280;49539;48.160;11.530;2022-10-16T03:32:13;95900.06;;;12.59;100.00
55149;BME280;49539;48.160;11.530;2022-10-16T03:34:38;95894.59;;;12.59;100.00
55149;BME280;49539;48.160;11.530;2022-10-16T03:37:04;95897.00;;;12.57;100.00
55149;BME280;49539;48.160;11.530;2022-10-16T03:39:29;95904.66;;;12.62;100.00
55149;BME280;49539;48.160;11.530;2022-10-16T03:41:54;95902.44;;;12.57;100.00
55149;BME280;49539;48.160;11.530;2022-10-16T03:44:19;95914.28;;;12.67;100.00
55149;BME280;49539;48.160;11.530;2022-10-16T03:46:45;95914.75;;;12.78;100.00
55149;BME280;49539;48.160;11.530;2022-10-16T03:49:10;95920.56;;;12.80;100.00
55149;BME280;49539;48.160;11.530;2022-10-16T03:51:35;95911.81;;;12.85;100.00
55149;BME280;49539;48.160;11.530;2022-10-16T03:54:01;95913.34;;;12.86;100.00
55149;BME280;49539;48.160;11.530;2022-10-16T03:56:26;95906.34;;;12.85;100.00
55149;BME280;49539;48.160;11.530;2022-10-16T03:58:51;95902.75;;;12.88;100.00
55149;BME280;49539;48.160;11.530;2022-10-16T04:01:17;95905.47;;;12.88;100.00
55149;BME280;49539;48.160;11.530;2022-10-16T04:03:42;95905.38;;;12.92;100.00
55149;BME280;49539;48.160;11.530;2022-10-16T04:06:07;95899.91;;;12.92;100.00
55149;BME280;49539;48.160;11.530;2022-10-16T04:08:34;95902.09;;;12.97;100.00
55149;BME280;49539;48.160;11.530;2022-10-16T04:11:01;95906.81;;;12.97;100.00
55149;BME280;49539;48.160;11.530;2022-10-16T04:13:26;95898.59;;;12.97;100.00
55149;BME280;49539;48.160;11.530;2022-10-16T04:15:52;95903.53;;;13.02;100.00
55149;BME280;49539;48.160;11.530;2022-10-16T04:18:17;95904.94;;;13.06;100.00
55149;BME280;49539;48.160;11.530;2022-10-16T04:20:42;95898.72;;;13.06;100.00
55149;BME280;49539;48.160;11.530;2022-10-16T04:23:08;95903.41;;;13.05;100.00
55149;BME280;49539;48.160;11.530;2022-10-16T04:25:33;95899.56;;;13.03;100.00
55149;BME280;49539;48.160;11.530;2022-10-16T04:27:58;95902.53;;;13.08;100.00
55149;BME280;49539;48.160;11.530;2022-10-16T04:30:23;95898.81;;;13.02;100.00
55149;BME280;49539;48.160;11.530;2022-10-16T04:32:49;95906.34;;;12.98;100.00
55149;BME280;49539;48.160;11.530;2022-10-16T04:35:15;95911.63;;;13.05;100.00
55149;BME280;49539;48.160;11.530;2022-10-16T04:37:41;95913.59;;;13.05;100.00
55149;BME280;49539;48.160;11.530;2022-10-16T04:40:06;95915.56;;;13.04;100.00
55149;BME280;49539;48.160;11.530;2022-10-16T04:42:32;95909.00;;;13.02;100.00
55149;BME280;49539;48.160;11.530;2022-10-16T04:44:57;95915.22;;;13.02;100.00
55149;BME280;49539;48.160;11.530;2022-10-16T04:47:22;95920.78;;;12.99;100.00
55149;BME280;49539;48.160;11.530;2022-10-16T04:49:48;95917.63;;;13.00;100.00
55149;BME280;49539;48.160;11.530;2022-10-16T04:52:13;95910.41;;;13.06;100.00
55149;BME280;49539;48.160;11.530;2022-10-16T04:54:38;95902.97;;;13.07;100.00
55149;BME280;49539;48.160;11.530;2022-10-16T04:57:04;95895.44;;;13.11;100.00
55149;BME280;49539;48.160;11.530;2022-10-16T04:59:30;95897.84;;;13.09;100.00
55149;BME280;49539;48.160;11.530;2022-10-16T05:01:55;95892.25;;;13.12;100.00
55149;BME280;49539;48.160;11.530;2022-10-16T05:04:20;95894.78;;;13.20;100.00
55149;BME280;49539;48.160;11.530;2022-10-16T05:06:47;95892.78;;;13.20;100.00
55149;BME280;49539;48.160;11.530;2022-10-16T05:09:12;95902.13;;;13.23;100.00
55149;BME280;49539;48.160;11.530;2022-10-16T05:11:38;95912.28;;;13.22;100.00
55149;BME280;49539;48.160;11.530;2022-10-16T05:14:03;95907.59;;;13.23;100.00
55149;BME280;49539;48.160;11.530;2022-10-16T05:16:29;95907.50;;;13.26;100.00
55149;BME280;49539;48.160;11.530;2022-10-16T05:18:55;95904.41;;;13.24;100.00
55149;BME280;49539;48.160;11.530;2022-10-16T05:21:21;95897.44;;;13.23;100.00
55149;BME280;49539;48.160;11.530;2022-10-16T05:23:46;95899.03;;;13.21;100.00
55149;BME280;49539;48.160;11.530;2022-10-16T05:26:11;95907.59;;;13.23;100.00
55149;BME280;49539;48.160;11.530;2022-10-16T05:28:37;95920.06;;;13.24;100.00
55149;BME280;49539;48.160;11.530;2022-10-16T05:31:05;95919.31;;;13.23;100.00
55149;BME280;49539;48.160;11.530;2022-10-16T05:33:31;95913.84;;;13.23;100.00
55149;BME280;49539;48.160;11.530;2022-10-16T05:35:57;95916.91;;;13.25;100.00
55149;BME280;49539;48.160;11.530;2022-10-16T05:38:25;95923.16;;;13.26;100.00
55149;BME280;49539;48.160;11.530;2022-10-16T05:40:51;95926.97;;;13.28;100.00
55149;BME280;49539;48.160;11.530;2022-10-16T05:43:17;95929.59;;;13.32;100.00
55149;BME280;49539;48.160;11.530;2022-10-16T05:45:42;95936.06;;;13.25;100.00
55149;BME280;49539;48.160;11.530;2022-10-16T05:48:08;95934.50;;;13.24;100.00
55149;BME280;49539;48.160;11.530;2022-10-16T05:50:33;95942.28;;;13.26;100.00
55149;BME280;49539;48.160;11.530;2022-10-16T05:52:58;95942.78;;;13.21;100.00
55149;BME280;49539;48.160;11.530;2022-10-16T05:55:23;95948.03;;;13.15;100.00
55149;BME280;49539;48.160;11.530;2022-10-16T05:57:49;95943.13;;;13.10;100.00
55149;BME280;49539;48.160;11.530;2022-10-16T06:00:14;95947.28;;;13.02;100.00
55149;BME280;49539;48.160;11.530;2022-10-16T06:02:39;95942.56;;;13.02;100.00
55149;BME280;49539;48.160;11.530;2022-10-16T06:05:04;95950.56;;;12.97;100.00
55149;BME280;49539;48.160;11.530;2022-10-16T06:07:33;95955.34;;;12.93;100.00
55149;BME280;49539;48.160;11.530;2022-10-16T06:09:58;95956.13;;;12.93;100.00
55149;BME280;49539;48.160;11.530;2022-10-16T06:12:24;95953.94;;;12.88;100.00
55149;BME280;49539;48.160;11.530;2022-10-16T06:14:49;95958.59;;;12.87;100.00
55149;BME280;49539;48.160;11.530;2022-10-16T06:17:14;95960.34;;;12.81;100.00
55149;BME280;49539;48.160;11.530;2022-10-16T06:19:40;95967.88;;;12.77;100.00
55149;BME280;49539;48.160;11.530;2022-10-16T06:22:06;95959.34;;;12.75;100.00
55149;BME280;49539;48.160;11.530;2022-10-16T06:24:31;95958.91;;;12.77;100.00
55149;BME280;49539;48.160;11.530;2022-10-16T06:26:56;95968.75;;;12.74;100.00
55149;BME280;49539;48.160;11.530;2022-10-16T06:29:22;95970.72;;;12.74;100.00
55149;BME280;49539;48.160;11.530;2022-10-16T06:31:47;95978.47;;;12.75;100.00
55149;BME280;49539;48.160;11.530;2022-10-16T06:34:12;95979.00;;;12.70;100.00
55149;BME280;49539;48.160;11.530;2022-10-16T06:36:38;95979.69;;;12.74;100.00
55149;BME280;49539;48.160;11.530;2022-10-16T06:39:04;95988.72;;;12.71;100.00
55149;BME280;49539;48.160;11.530;2022-10-16T06:41:30;95984.19;;;12.81;100.00
55149;BME280;49539;48.160;11.530;2022-10-16T06:43:56;95988.22;;;12.76;100.00
55149;BME280;49539;48.160;11.530;2022-10-16T06:46:22;95990.97;;;12.76;100.00
55149;BME280;49539;48.160;11.530;2022-10-16T06:48:47;96001.78;;;12.80;100.00
55149;BME280;49539;48.160;11.530;2022-10-16T06:51:14;95998.50;;;12.72;100.00
55149;BME280;49539;48.160;11.530;2022-10-16T06:53:41;96003.19;;;12.72;100.00
55149;BME280;49539;48.160;11.530;2022-10-16T06:56:10;95999.16;;;12.76;100.00
55149;BME280;49539;48.160;11.530;2022-10-16T06:58:36;96007.69;;;12.78;100.00
55149;BME280;49539;48.160;11.530;2022-10-16T07:01:01;96017.75;;;12.81;100.00
55149;BME280;49539;48.160;11.530;2022-10-16T07:03:27;96015.13;;;12.78;100.00
55149;BME280;49539;48.160;11.530;2022-10-16T07:05:52;96015.88;;;12.78;100.00
55149;BME280;49539;48.160;11.530;2022-10-16T07:08:17;96016.22;;;12.80;100.00
55149;BME280;49539;48.160;11.530;2022-10-16T07:10:42;96018.06;;;12.83;100.00
55149;BME280;49539;48.160;11.530;2022-10-16T07:13:08;96019.19;;;12.86;100.00
55149;BME280;49539;48.160;11.530;2022-10-16T07:15:33;96021.47;;;12.87;100.00
55149;BME280;49539;48.160;11.530;2022-10-16T07:17:59;96017.03;;;12.94;100.00
55149;BME280;49539;48.160;11.530;2022-10-16T07:20:24;96020.88;;;12.96;100.00
55149;BME280;49539;48.160;11.530;2022-10-16T07:22:50;96019.31;;;12.95;100.00
55149;BME280;49539;48.160;11.530;2022-10-16T07:25:16;96025.56;;;12.96;100.00
55149;BME280;49539;48.160;11.530;2022-10-16T07:27:41;96025.31;;;12.90;100.00
55149;BME280;49539;48.160;11.530;2022-10-16T07:30:06;96027.44;;;12.99;100.00
55149;BME280;49539;48.160;11.530;2022-10-16T07:32:32;96037.31;;;13.09;100.00
55149;BME280;49539;48.160;11.530;2022-10-16T07:34:57;96039.41;;;13.18;100.00
55149;BME280;49539;48.160;11.530;2022-10-16T07:37:22;96039.66;;;13.23;100.00
55149;BME280;49539;48.160;11.530;2022-10-16T07:39:48;96043.16;;;13.24;100.00
55149;BME280;49539;48.160;11.530;2022-10-16T07:42:13;96037.81;;;13.33;100.00
55149;BME280;49539;48.160;11.530;2022-10-16T07:44:38;96049.41;;;13.37;100.00
55149;BME280;49539;48.160;11.530;2022-10-16T07:47:05;96039.84;;;13.58;100.00
55149;BME280;49539;48.160;11.530;2022-10-16T07:49:30;96041.38;;;13.59;100.00
55149;BME280;49539;48.160;11.530;2022-10-16T07:51:56;96043.56;;;13.77;100.00
55149;BME280;49539;48.160;11.530;2022-10-16T07:54:21;96047.06;;;13.90;100.00
55149;BME280;49539;48.160;11.530;2022-10-16T07:56:46;96045.31;;;13.96;100.00
55149;BME280;49539;48.160;11.530;2022-10-16T07:59:11;96047.38;;;14.05;100.00
55149;BME280;49539;48.160;11.530;2022-10-16T08:01:37;96047.06;;;14.15;100.00
55149;BME280;49539;48.160;11.530;2022-10-16T08:04:02;96055.13;;;14.19;100.00
55149;BME280;49539;48.160;11.530;2022-10-16T08:06:28;96052.25;;;14.35;100.00
55149;BME280;49539;48.160;11.530;2022-10-16T08:08:53;96044.69;;;14.65;100.00
55149;BME280;49539;48.160;11.530;2022-10-16T08:11:19;96037.16;;;14.78;100.00
55149;BME280;49539;48.160;11.530;2022-10-16T08:13:44;96034.81;;;15.11;100.00
55149;BME280;49539;48.160;11.530;2022-10-16T08:16:09;96039.66;;;15.29;100.00
55149;BME280;49539;48.160;11.530;2022-10-16T08:18:35;96030.31;;;15.49;100.00
55149;BME280;49539;48.160;11.530;2022-10-16T08:21:00;96030.47;;;15.76;100.00
55149;BME280;49539;48.160;11.530;2022-10-16T08:23:26;96028.56;;;16.04;100.00
55149;BME280;49539;48.160;11.530;2022-10-16T08:25:52;96033.53;;;16.28;100.00
55149;BME280;49539;48.160;11.530;2022-10-16T08:28:18;96029.44;;;16.42;100.00
55149;BME280;49539;48.160;11.530;2022-10-16T08:30:44;96026.38;;;16.49;100.00
55149;BME280;49539;48.160;11.530;2022-10-16T08:33:09;96033.75;;;16.70;100.00
55149;BME280;49539;48.160;11.530;2022-10-16T08:35:34;96035.59;;;16.82;100.00
55149;BME280;49539;48.160;11.530;2022-10-16T08:38:02;96035.63;;;17.01;100.00
55149;BME280;49539;48.160;11.530;2022-10-16T08:40:28;96033.31;;;17.08;100.00
55149;BME280;49539;48.160;11.530;2022-10-16T08:43:04;96035.00;;;17.24;100.00
55149;BME280;49539;48.160;11.530;2022-10-16T08:50:42;96039.81;;;17.57;100.00
55149;BME280;49539;48.160;11.530;2022-10-16T08:53:10;96040.06;;;17.77;100.00
55149;BME280;49539;48.160;11.530;2022-10-16T08:55:43;96046.41;;;18.02;100.00
55149;BME280;49539;48.160;11.530;2022-10-16T08:58:12;96049.59;;;18.09;100.00
55149;BME280;49539;48.160;11.530;2022-10-16T09:00:38;96044.44;;;18.26;100.00
55149;BME280;49539;48.160;11.530;2022-10-16T09:03:09;96043.13;;;18.46;100.00
55149;BME280;49539;48.160;11.530;2022-10-16T09:05:46;96052.66;;;18.59;100.00
55149;BME280;49539;48.160;11.530;2022-10-16T09:10:52;96045.56;;;18.68;100.00
55149;BME280;49539;48.160;11.530;2022-10-16T09:13:29;96046.59;;;18.79;100.00
55149;BME280;49539;48.160;11.530;2022-10-16T09:16:08;96042.72;;;19.01;100.00
55149;BME280;49539;48.160;11.530;2022-10-16T09:21:30;96031.41;;;18.99;100.00
55149;BME280;49539;48.160;11.530;2022-10-16T09:24:10;96034.00;;;19.02;100.00
55149;BME280;49539;48.160;11.530;2022-10-16T09:26:37;96045.03;;;19.17;100.00
55149;BME280;49539;48.160;11.530;2022-10-16T09:29:02;96046.72;;;19.39;100.00
55149;BME280;49539;48.160;11.530;2022-10-16T09:31:28;96042.03;;;19.45;100.00
55149;BME280;49539;48.160;11.530;2022-10-16T09:33:54;96046.06;;;19.58;100.00
55149;BME280;49539;48.160;11.530;2022-10-16T09:36:22;96040.34;;;19.62;100.00
55149;BME280;49539;48.160;11.530;2022-10-16T09:38:49;96042.16;;;19.80;100.00
55149;BME280;49539;48.160;11.530;2022-10-16T09:41:16;96035.00;;;19.88;100.00
55149;BME280;49539;48.160;11.530;2022-10-16T09:48:53;96055.78;;;20.33;100.00
55149;BME280;49539;48.160;11.530;2022-10-16T09:51:29;96057.34;;;20.55;100.00
55149;BME280;49539;48.160;11.530;2022-10-16T09:53:57;96054.09;;;20.56;100.00
55149;BME280;49539;48.160;11.530;2022-10-16T09:56:27;96058.47;;;20.63;100.00
55149;BME280;49539;48.160;11.530;2022-10-16T09:58:53;96071.06;;;20.85;100.00
55149;BME280;49539;48.160;11.530;2022-10-16T10:01:19;96065.16;;;20.97;100.00
55149;BME280;49539;48.160;11.530;2022-10-16T10:03:45;96062.06;;;20.90;100.00
55149;BME280;49539;48.160;11.530;2022-10-16T10:06:25;96065.72;;;21.01;100.00
55149;BME280;49539;48.160;11.530;2022-10-16T10:08:56;96055.41;;;21.02;100.00
55149;BME280;49539;48.160;11.530;2022-10-16T10:14:05;96061.22;;;21.24;100.00
55149;BME280;49539;48.160;11.530;2022-10-16T10:16:30;96062.66;;;21.40;100.00
55149;BME280;49539;48.160;11.530;2022-10-16T10:18:59;96060.66;;;21.41;100.00
55149;BME280;49539;48.160;11.530;2022-10-16T10:21:24;96062.81;;;21.57;100.00
55149;BME280;49539;48.160;11.530;2022-10-16T10:23:56;96066.81;;;21.82;100.00
55149;BME280;49539;48.160;11.530;2022-10-16T10:26:23;96075.31;;;22.04;100.00
55149;BME280;49539;48.160;11.530;2022-10-16T10:34:01;96065.38;;;22.18;100.00
55149;BME280;49539;48.160;11.530;2022-10-16T10:36:40;96068.25;;;22.35;100.00
55149;BME280;49539;48.160;11.530;2022-10-16T10:44:55;96060.88;;;22.69;100.00
55149;BME280;49539;48.160;11.530;2022-10-16T10:47:18;96062.66;;;22.72;100.00
55149;BME280;49539;48.160;11.530;2022-10-16T10:57:22;96055.59;;;23.53;96.21
55149;BME280;49539;48.160;11.530;2022-10-16T11:05:21;96059.22;;;23.88;89.79
55149;BME280;49539;48.160;11.530;2022-10-16T11:07:51;96052.13;;;23.98;100.00
55149;BME280;49539;48.160;11.530;2022-10-16T11:10:21;96063.75;;;24.02;100.00
55149;BME280;49539;48.160;11.530;2022-10-16T11:12:50;96053.16;;;24.12;100.00
55149;BME280;49539;48.160;11.530;2022-10-16T11:15:23;96060.47;;;24.20;90.48
55149;BME280;49539;48.160;11.530;2022-10-16T11:18:38;96061.72;;;24.19;86.41
55149;BME280;49539;48.160;11.530;2022-10-16T11:20:37;96062.50;;;24.09;83.88
55149;BME280;49539;48.160;11.530;2022-10-16T11:23:08;96053.88;;;24.18;80.84
55149;BME280;49539;48.160;11.530;2022-10-16T11:25:36;96058.69;;;23.89;84.82
55149;BME280;49539;48.160;11.530;2022-10-16T11:28:17;96058.19;;;24.02;77.63
55149;BME280;49539;48.160;11.530;2022-10-16T11:30:53;96062.75;;;24.05;77.32
55149;BME280;49539;48.160;11.530;2022-10-16T11:38:35;96055.56;;;24.71;60.65
55149;BME280;49539;48.160;11.530;2022-10-16T11:41:11;96055.28;;;24.86;56.04
55149;BME280;49539;48.160;11.530;2022-10-16T11:43:41;96053.16;;;25.15;52.70
55149;BME280;49539;48.160;11.530;2022-10-16T11:46:09;96053.59;;;25.24;59.30
55149;BME280;49539;48.160;11.530;2022-10-16T11:48:38;96051.63;;;25.19;71.36
55149;BME280;49539;48.160;11.530;2022-10-16T11:56:24;96052.59;;;25.28;56.28
55149;BME280;49539;48.160;11.530;2022-10-16T11:59:03;96053.28;;;25.39;57.35
55149;BME280;49539;48.160;11.530;2022-10-16T12:01:36;96054.22;;;24.95;64.63
55149;BME280;49539;48.160;11.530;2022-10-16T12:06:40;96062.44;;;25.29;61.10
55149;BME280;49539;48.160;11.530;2022-10-16T12:09:15;96053.94;;;25.57;62.53
55149;BME280;49539;48.160;11.530;2022-10-16T12:11:44;96047.50;;;25.67;63.35
55149;BME280;49539;48.160;11.530;2022-10-16T12:16:36;96047.38;;;25.90;61.92
55149;BME280;49539;48.160;11.530;2022-10-16T12:19:02;96049.59;;;26.27;62.83
55149;BME280;49539;48.160;11.530;2022-10-16T12:21:31;96051.81;;;26.34;64.89
55149;BME280;49539;48.160;11.530;2022-10-16T12:23:58;96044.25;;;25.99;63.43
55149;BME280;49539;48.160;11.530;2022-10-16T12:26:28;96051.88;;;26.78;58.45
55149;BME280;49539;48.160;11.530;2022-10-16T12:28:54;96048.09;;;27.56;53.53
55149;BME280;49539;48.160;11.530;2022-10-16T12:31:20;96037.13;;;28.23;50.68
55149;BME280;49539;48.160;11.530;2022-10-16T12:33:56;96053.22;;;28.35;48.39
55149;BME280;49539;48.160;11.530;2022-10-16T12:36:32;96040.44;;;28.80;42.44
55149;BME280;49539;48.160;11.530;2022-10-16T12:38:58;96044.09;;;29.14;40.57
55149;BME280;49539;48.160;11.530;2022-10-16T12:43:53;96041.00;;;28.19;47.76
55149;BME280;49539;48.160;11.530;2022-10-16T12:46:20;96042.13;;;28.96;45.95
55149;BME280;49539;48.160;11.530;2022-10-16T12:48:46;96044.88;;;29.02;39.18
55149;BME280;49539;48.160;11.530;2022-10-16T12:54:14;96031.81;;;30.56;41.41
55149;BME280;49539;48.160;11.530;2022-10-16T13:02:04;96036.19;;;32.66;34.20
55149;BME280;49539;48.160;11.530;2022-10-16T13:07:12;96035.94;;;33.02;30.62
55149;BME280;49539;48.160;11.530;2022-10-16T13:22:37;96048.97;;;27.64;43.63
55149;BME280;49539;48.160;11.530;2022-10-16T13:25:26;96046.72;;;27.06;51.81
55149;BME280;49539;48.160;11.530;2022-10-16T13:30:21;96048.19;;;26.88;40.09
55149;BME280;49539;48.160;11.530;2022-10-16T13:32:47;96049.00;;;26.04;44.60
55149;BME280;49539;48.160;11.530;2022-10-16T13:35:20;96056.19;;;25.58;49.21
55149;BME280;49539;48.160;11.530;2022-10-16T13:37:46;96043.94;;;25.72;57.52
55149;BME280;49539;48.160;11.530;2022-10-16T13:40:17;96052.16;;;25.54;60.93
55149;BME280;49539;48.160;11.530;2022-10-16T13:42:43;96056.44;;;25.60;51.02
55149;BME280;49539;48.160;11.530;2022-10-16T13:45:19;96053.03;;;25.37;49.11
55149;BME280;49539;48.160;11.530;2022-10-16T13:47:45;96053.50;;;25.47;46.91
55149;BME280;49539;48.160;11.530;2022-10-16T13:50:14;96057.84;;;25.37;49.00
55149;BME280;49539;48.160;11.530;2022-10-16T13:52:40;96056.66;;;25.21;52.27
55149;BME280;49539;48.160;11.530;2022-10-16T13:55:10;96060.50;;;25.12;50.86
55149;BME280;49539;48.160;11.530;2022-10-16T13:57:36;96062.28;;;25.10;50.59
55149;BME280;49539;48.160;11.530;2022-10-16T14:00:02;96066.34;;;25.14;51.49
55149;BME280;49539;48.160;11.530;2022-10-16T14:02:33;96070.16;;;25.00;55.91
55149;BME280;49539;48.160;11.530;2022-10-16T14:05:00;96078.13;;;24.62;72.56
55149;BME280;49539;48.160;11.530;2022-10-16T14:07:30;96071.63;;;25.18;56.85
55149;BME280;49539;48.160;11.530;2022-10-16T14:09:56;96068.97;;;25.42;59.54
55149;BME280;49539;48.160;11.530;2022-10-16T14:12:24;96068.34;;;26.02;46.92
55149;BME280;49539;48.160;11.530;2022-10-16T14:14:51;96068.47;;;26.15;58.01
55149;BME280;49539;48.160;11.530;2022-10-16T14:17:18;96068.13;;;26.24;44.73
55149;BME280;49539;48.160;11.530;2022-10-16T14:19:48;96068.41;;;25.49;51.19
55149;BME280;49539;48.160;11.530;2022-10-16T14:24:55;96064.00;;;25.24;55.09
55149;BME280;49539;48.160;11.530;2022-10-16T14:27:23;96069.75;;;24.68;72.08